Time;durP1;ratioP1;P1;durP2;ratioP2;P2;SDS_P1;SDS_P2;PMS_P1;PMS_P2;Temp;Humidity;BMP_temperature;BMP_pressure;BME280_temperature;BME280_humidity;BME280_pressure;Samples;Min_cycle;Max_cycle;Signal;HPM_P1;HPM_P2
2023/12/07 00:00:15;;;;;;;21.70;15.32;;;;;;;1.14;100.00;96920.38;5067364;28;20046;-73
2023/12/07 00:02:41;;;;;;;20.83;14.23;;;;;;;1.16;100.00;96919.28;5066837;28;20459;-73
2023/12/07 00:05:06;;;;;;;19.73;13.75;;;;;;;1.09;100.00;96917.78;5071684;28;20063;-72
2023/12/07 00:07:32;;;;;;;23.35;15.23;;;;;;;1.08;100.00;96916.19;5060389;28;20446;-73
2023/12/07 00:09:57;;;;;;;24.50;13.80;;;;;;;1.10;100.00;96922.09;5069574;28;20514;-71
2023/12/07 00:12:22;;;;;;;20.77;14.55;;;;;;;1.14;100.00;96925.78;5067882;28;20462;-73
2023/12/07 00:14:48;;;;;;;18.88;13.07;;;;;;;1.16;100.00;96922.78;5065959;28;20041;-74
2023/12/07 00:17:14;;;;;;;20.95;13.20;;;;;;;1.14;100.00;96930.38;5063620;28;20126;-74
2023/12/07 00:19:39;;;;;;;21.83;14.95;;;;;;;1.09;100.00;96936.66;5065898;28;20044;-71
2023/12/07 00:22:05;;;;;;;20.70;14.07;;;;;;;1.09;100.00;96933.16;5059422;28;20043;-71
2023/12/07 00:24:30;;;;;;;20.65;13.52;;;;;;;1.13;100.00;96929.59;5063665;28;20063;-73
2023/12/07 00:26:56;;;;;;;20.52;13.40;;;;;;;1.08;100.00;96934.25;5065175;28;20139;-72
2023/12/07 00:29:21;;;;;;;21.17;14.70;;;;;;;0.91;100.00;96934.84;5063106;28;20052;-73
2023/12/07 00:31:46;;;;;;;23.70;14.77;;;;;;;0.78;100.00;96941.81;5059817;28;20040;-71
2023/12/07 00:34:12;;;;;;;23.25;14.50;;;;;;;0.77;100.00;96942.91;5062545;28;20443;-73
2023/12/07 00:36:39;;;;;;;25.27;13.88;;;;;;;0.82;100.00;96950.13;5066145;28;20040;-72
2023/12/07 00:39:04;;;;;;;21.77;13.73;;;;;;;0.88;100.00;96947.03;5057964;28;20151;-74
2023/12/07 00:41:30;;;;;;;21.08;14.45;;;;;;;0.86;100.00;96951.91;5072080;28;20131;-74
2023/12/07 00:43:55;;;;;;;19.35;13.68;;;;;;;0.88;100.00;96951.63;5062064;28;20102;-73
2023/12/07 00:46:20;;;;;;;23.52;15.65;;;;;;;0.92;100.00;96952.66;5068168;28;20548;-72
2023/12/07 00:48:46;;;;;;;21.20;14.10;;;;;;;0.95;100.00;96952.03;5085476;28;20072;-73
2023/12/07 00:51:11;;;;;;;22.50;14.57;;;;;;;1.00;100.00;96946.53;5061538;28;20050;-72
2023/12/07 00:53:37;;;;;;;22.77;14.10;;;;;;;1.00;100.00;96951.94;5060874;28;20040;-72
2023/12/07 00:56:04;;;;;;;23.30;14.32;;;;;;;1.01;100.00;96942.75;5058072;28;20457;-73
2023/12/07 00:58:29;;;;;;;22.48;14.50;;;;;;;1.04;100.00;96952.94;5067167;28;20050;-72
2023/12/07 01:00:55;;;;;;;21.75;15.15;;;;;;;1.05;100.00;96938.34;5059714;28;20139;-71
2023/12/07 01:03:20;;;;;;;26.67;16.02;;;;;;;1.04;100.00;96938.66;5050937;28;20036;-72
2023/12/07 01:05:45;;;;;;;27.42;16.30;;;;;;;1.06;100.00;96934.56;5067666;28;20041;-72
2023/12/07 01:08:11;;;;;;;21.85;15.27;;;;;;;1.08;100.00;96940.47;5054399;28;20507;-72
2023/12/07 01:10:36;;;;;;;24.02;14.23;;;;;;;0.97;100.00;96939.03;5079732;28;20558;-72
2023/12/07 01:13:02;;;;;;;22.88;15.25;;;;;;;0.95;100.00;96942.06;5078254;28;20036;-73
2023/12/07 01:15:27;;;;;;;25.05;15.93;;;;;;;0.90;100.00;96944.84;5077468;28;20047;-73
2023/12/07 01:17:53;;;;;;;23.50;14.52;;;;;;;0.86;100.00;96946.50;5071223;28;20036;-73
2023/12/07 01:20:18;;;;;;;22.88;14.90;;;;;;;0.82;100.00;96948.22;5076088;28;20040;-73
2023/12/07 01:22:45;;;;;;;23.40;16.30;;;;;;;0.80;100.00;96944.22;5084786;28;20048;-73
2023/12/07 01:25:11;;;;;;;21.73;14.98;;;;;;;0.78;100.00;96949.13;5091412;28;20062;-73
2023/12/07 01:27:37;;;;;;;23.73;15.85;;;;;;;0.72;100.00;96945.69;5097374;28;20036;-73
2023/12/07 01:30:03;;;;;;;23.08;15.15;;;;;;;0.66;100.00;96942.28;5078004;28;20044;-73
2023/12/07 01:32:30;;;;;;;24.77;15.48;;;;;;;0.62;100.00;96946.69;5039569;28;20490;-73
2023/12/07 01:34:55;;;;;;;23.10;14.95;;;;;;;0.50;100.00;96963.31;5069330;28;20040;-74
2023/12/07 01:37:20;;;;;;;22.73;14.80;;;;;;;0.48;100.00;96972.78;5041177;28;20047;-76
2023/12/07 01:39:46;;;;;;;25.77;15.73;;;;;;;0.47;100.00;96968.47;5066092;28;20067;-75
2023/12/07 01:42:14;;;;;;;23.40;14.85;;;;;;;0.43;100.00;96976.34;5055400;28;20699;-76
2023/12/07 01:44:39;;;;;;;23.73;15.95;;;;;;;0.34;100.00;96983.50;5064132;28;20032;-74
2023/12/07 01:47:07;;;;;;;24.17;15.52;;;;;;;0.27;100.00;96981.22;5059060;28;20036;-74
2023/12/07 01:49:34;;;;;;;23.95;15.27;;;;;;;0.28;100.00;96977.41;5061757;28;20582;-74
2023/12/07 01:51:59;;;;;;;25.60;16.27;;;;;;;0.25;100.00;96985.28;5079159;28;20036;-75
2023/12/07 01:54:25;;;;;;;24.85;16.70;;;;;;;0.37;100.00;96977.53;5074964;28;20197;-76
2023/12/07 01:56:51;;;;;;;25.42;15.07;;;;;;;0.44;100.00;96974.47;5055694;28;20075;-74
2023/12/07 01:59:17;;;;;;;22.80;14.52;;;;;;;0.44;100.00;96986.06;5054912;28;20080;-75
2023/12/07 02:01:43;;;;;;;29.20;15.05;;;;;;;0.47;100.00;96982.78;5051338;28;20072;-75
2023/12/07 02:04:10;;;;;;;28.58;15.95;;;;;;;0.30;100.00;96993.28;5045323;28;20732;-73
2023/12/07 02:06:35;;;;;;;25.98;16.38;;;;;;;-0.02;100.00;96992.13;5060562;28;20127;-74
2023/12/07 02:09:01;;;;;;;29.52;17.65;;;;;;;-0.32;100.00;96991.44;5071974;28;20139;-74
2023/12/07 02:11:27;;;;;;;27.48;16.92;;;;;;;-0.46;100.00;96993.25;5048317;28;20124;-74
2023/12/07 02:13:55;;;;;;;31.95;17.38;;;;;;;-0.42;100.00;96997.75;5070263;28;20195;-74
2023/12/07 02:16:31;;;;;;;28.42;16.30;;;;;;;-0.24;100.00;97001.56;5068025;28;20040;-74
2023/12/07 02:19:24;;;;;;;31.88;18.05;;;;;;;-0.08;100.00;96996.78;5071126;28;20051;-74
2023/12/07 02:22:02;;;;;;;31.52;17.83;;;;;;;0.12;100.00;96994.88;5083469;28;20048;-74
2023/12/07 02:24:33;;;;;;;27.33;17.23;;;;;;;0.22;100.00;96993.94;5072252;28;20044;-74
2023/12/07 02:26:58;;;;;;;31.23;18.05;;;;;;;0.27;100.00;96996.56;5067384;28;20147;-74
2023/12/07 02:29:24;;;;;;;28.83;15.93;;;;;;;0.33;100.00;96998.09;5022879;28;20224;-74
2023/12/07 02:31:49;;;;;;;29.52;16.77;;;;;;;0.41;100.00;96993.94;5071353;28;20044;-74
2023/12/07 02:34:15;;;;;;;27.63;16.50;;;;;;;0.47;100.00;96995.44;5049439;28;20083;-74
2023/12/07 02:36:43;;;;;;;25.02;15.07;;;;;;;0.45;100.00;96998.44;5074684;28;20075;-74
2023/12/07 02:39:09;;;;;;;26.27;15.85;;;;;;;0.43;100.00;96987.13;5069331;28;20659;-74
2023/12/07 02:41:36;;;;;;;25.50;15.93;;;;;;;0.38;100.00;96995.31;5075227;28;20060;-77
2023/12/07 02:44:02;;;;;;;28.63;17.40;;;;;;;0.23;100.00;96992.84;5082485;28;20249;-75
2023/12/07 02:46:27;;;;;;;30.67;17.15;;;;;;;0.11;100.00;96986.03;5067280;28;20044;-74
2023/12/07 02:48:53;;;;;;;28.90;16.63;;;;;;;0.06;100.00;96990.69;5078725;28;20089;-74
2023/12/07 02:51:18;;;;;;;28.67;16.10;;;;;;;0.42;100.00;96990.94;5076492;28;20189;-74
2023/12/07 02:53:44;;;;;;;27.67;16.48;;;;;;;0.42;100.00;96985.56;5092528;28;20036;-73
2023/12/07 02:56:09;;;;;;;26.75;16.05;;;;;;;0.44;100.00;96991.44;5070145;28;20387;-73
2023/12/07 02:58:36;;;;;;;27.90;15.95;;;;;;;0.43;100.00;96997.13;5065818;28;20139;-74
2023/12/07 03:01:01;;;;;;;27.98;15.63;;;;;;;0.37;100.00;96991.81;5081726;28;20123;-75
2023/12/07 03:03:27;;;;;;;28.05;16.23;;;;;;;0.41;100.00;96991.22;5061032;28;20040;-73
2023/12/07 03:05:52;;;;;;;27.20;14.63;;;;;;;0.25;100.00;96999.53;5073648;28;20045;-74
2023/12/07 03:08:17;;;;;;;45.00;18.83;;;;;;;0.14;100.00;96995.41;5057054;28;20045;-73
2023/12/07 03:10:43;;;;;;;39.30;17.60;;;;;;;0.13;100.00;96999.19;5075330;28;20036;-73
2023/12/07 03:13:08;;;;;;;34.80;16.48;;;;;;;0.17;100.00;97005.59;5043009;28;20514;-73
2023/12/07 03:15:33;;;;;;;30.67;17.83;;;;;;;0.23;100.00;97003.63;5068342;28;20044;-73
2023/12/07 03:17:59;;;;;;;29.65;17.88;;;;;;;0.05;100.00;97011.41;5053253;28;20032;-73
2023/12/07 03:20:24;;;;;;;24.55;14.73;;;;;;;-0.13;100.00;97007.59;5076182;28;20142;-73
2023/12/07 03:22:49;;;;;;;25.67;14.77;;;;;;;-0.32;100.00;97012.19;5075534;28;20075;-73
2023/12/07 03:25:15;;;;;;;28.40;15.77;;;;;;;-0.44;100.00;97007.22;5075752;28;20097;-73
2023/12/07 03:27:40;;;;;;;31.50;16.98;;;;;;;-0.49;100.00;97007.25;5082620;28;20105;-73
2023/12/07 03:30:06;;;;;;;28.02;16.63;;;;;;;-0.58;100.00;97004.41;5074289;28;20032;-73
2023/12/07 03:32:32;;;;;;;28.90;15.88;;;;;;;-0.63;100.00;96999.06;5073403;28;20072;-74
2023/12/07 03:34:58;;;;;;;25.15;14.93;;;;;;;-0.69;100.00;97000.22;5083606;28;20059;-75
2023/12/07 03:37:23;;;;;;;33.67;16.38;;;;;;;-0.76;100.00;97000.56;5080804;28;20040;-75
2023/12/07 03:39:48;;;;;;;28.08;15.98;;;;;;;-0.71;100.00;97005.09;5085537;28;20032;-74
2023/12/07 03:42:13;;;;;;;28.55;16.40;;;;;;;-0.44;100.00;97002.63;5076090;28;20047;-74
2023/12/07 03:44:39;;;;;;;28.00;15.38;;;;;;;-0.31;100.00;96998.41;5071620;28;20070;-73
2023/12/07 03:47:05;;;;;;;30.67;16.65;;;;;;;-0.21;100.00;97001.00;5077885;28;20631;-74
2023/12/07 03:49:30;;;;;;;30.08;16.60;;;;;;;-0.18;100.00;96998.81;5065306;28;20475;-73
2023/12/07 03:51:56;;;;;;;26.70;16.50;;;;;;;-0.23;100.00;97000.47;5073975;28;20051;-73
2023/12/07 03:54:21;;;;;;;28.70;16.20;;;;;;;-0.35;100.00;96994.72;5041690;28;20073;-72
2023/12/07 03:56:46;;;;;;;31.50;17.27;;;;;;;-0.51;100.00;96988.72;5072590;28;20039;-75
2023/12/07 03:59:12;;;;;;;34.63;18.25;;;;;;;-0.61;100.00;96994.22;5068895;28;20550;-74
2023/12/07 04:01:37;;;;;;;33.83;17.73;;;;;;;-0.64;100.00;96994.78;5064410;28;20059;-73
2023/12/07 04:04:04;;;;;;;38.65;21.08;;;;;;;-0.65;100.00;96996.69;5071787;28;20036;-74
2023/12/07 04:06:30;;;;;;;44.88;20.35;;;;;;;-0.67;100.00;96996.16;5071334;28;20048;-74
2023/12/07 04:08:56;;;;;;;42.25;22.15;;;;;;;-0.65;100.00;96999.38;5046859;28;20107;-73
2023/12/07 04:11:22;;;;;;;44.25;21.48;;;;;;;-0.67;100.00;96998.06;5070644;28;20043;-73
2023/12/07 04:13:50;;;;;;;47.42;23.83;;;;;;;-0.57;100.00;96991.78;5065335;28;20044;-73
2023/12/07 04:16:16;;;;;;;51.30;23.95;;;;;;;-0.59;100.00;96992.06;5066780;28;20052;-73
2023/12/07 04:18:42;;;;;;;48.80;23.90;;;;;;;-0.62;100.00;96998.00;5080610;28;20260;-74
2023/12/07 04:21:07;;;;;;;44.78;21.00;;;;;;;-0.62;100.00;97001.47;5079242;28;20020;-74
2023/12/07 04:23:33;;;;;;;44.88;22.05;;;;;;;-0.59;100.00;97005.50;5085202;28;20082;-73
2023/12/07 04:25:58;;;;;;;41.90;21.92;;;;;;;-0.45;100.00;97003.72;5075064;28;20037;-74
2023/12/07 04:28:24;;;;;;;43.30;22.50;;;;;;;-0.50;100.00;97001.09;5045871;28;20491;-73
2023/12/07 04:30:49;;;;;;;40.55;20.88;;;;;;;-0.65;100.00;97004.75;5064905;28;20051;-73
2023/12/07 04:33:14;;;;;;;44.70;22.05;;;;;;;-0.72;100.00;97001.63;5076106;28;20044;-75
2023/12/07 04:35:40;;;;;;;38.03;20.02;;;;;;;-0.71;100.00;97007.78;5076669;28;20032;-74
2023/12/07 04:38:05;;;;;;;45.15;21.50;;;;;;;-0.75;100.00;97006.75;5055235;28;20117;-74
2023/12/07 04:40:31;;;;;;;42.60;22.40;;;;;;;-0.73;100.00;97004.59;5078821;28;20494;-74
2023/12/07 04:42:56;;;;;;;40.63;20.13;;;;;;;-0.74;100.00;97003.75;5054597;28;20110;-74
2023/12/07 04:45:22;;;;;;;45.28;22.52;;;;;;;-0.79;100.00;97001.16;5060651;28;20143;-73
2023/12/07 04:47:47;;;;;;;43.08;21.67;;;;;;;-0.82;100.00;97007.88;5068369;28;20040;-74
2023/12/07 04:50:13;;;;;;;49.35;22.77;;;;;;;-0.82;100.00;96999.81;5064099;28;20036;-74
2023/12/07 04:52:38;;;;;;;71.53;34.08;;;;;;;-0.80;100.00;97005.72;5066344;28;20643;-74
2023/12/07 04:55:08;;;;;;;47.95;24.15;;;;;;;-0.83;100.00;96998.22;5049913;28;20041;-75
2023/12/07 04:57:34;;;;;;;;;;;;;;;-0.84;100.00;97003.91;5044202;28;20283;-74
2023/12/07 04:59:59;;;;;;;48.42;22.42;;;;;;;-0.91;100.00;96987.28;5053107;28;19939;-73
2023/12/07 05:02:27;;;;;;;52.10;23.95;;;;;;;-0.99;100.00;96997.59;5036667;28;20041;-75
2023/12/07 05:04:53;;;;;;;45.65;22.52;;;;;;;-0.83;100.00;97003.63;5068508;28;20047;-75
2023/12/07 05:07:18;;;;;;;48.58;24.25;;;;;;;-0.73;100.00;96999.22;5061165;28;20466;-73
2023/12/07 05:09:43;;;;;;;50.05;23.67;;;;;;;-0.72;100.00;97004.31;5084902;28;20094;-74
2023/12/07 05:12:09;;;;;;;48.20;23.70;;;;;;;-0.69;100.00;97000.22;5068031;28;20036;-73
2023/12/07 05:14:37;;;;;;;44.13;23.33;;;;;;;-0.75;100.00;97012.16;5077349;28;20110;-73
2023/12/07 05:17:03;;;;;;;45.42;23.50;;;;;;;-0.78;100.00;97002.75;5063200;28;20066;-74
2023/12/07 05:19:29;;;;;;;46.38;23.17;;;;;;;-0.85;100.00;97004.97;5073681;28;20114;-73
2023/12/07 05:21:54;;;;;;;48.17;24.67;;;;;;;-0.86;100.00;97008.75;5065926;28;20033;-72
2023/12/07 05:24:20;;;;;;;46.78;24.50;;;;;;;-0.94;100.00;97004.00;5055482;28;20037;-73
2023/12/07 05:26:46;;;;;;;48.13;24.23;;;;;;;-1.02;100.00;97002.72;5069848;28;20028;-72
2023/12/07 05:29:12;;;;;;;48.63;23.30;;;;;;;-1.12;100.00;97009.00;5075481;28;20044;-73
2023/12/07 05:31:37;;;;;;;48.58;24.88;;;;;;;-1.13;100.00;97001.22;5064136;28;20122;-74
2023/12/07 05:34:03;;;;;;;51.80;26.13;;;;;;;-1.16;100.00;97003.38;5070522;28;20136;-76
2023/12/07 05:36:29;;;;;;;53.20;25.92;;;;;;;-1.11;100.00;96997.16;5049032;28;20260;-75
2023/12/07 05:38:54;;;;;;;50.05;25.05;;;;;;;-1.10;100.00;96998.75;5073460;28;20037;-73
2023/12/07 05:41:20;;;;;;;53.13;26.92;;;;;;;-1.13;100.00;96995.81;5072563;28;20047;-75
2023/12/07 05:43:45;;;;;;;52.60;25.30;;;;;;;-1.18;100.00;96999.38;5073921;28;20486;-74
2023/12/07 05:46:10;;;;;;;52.10;25.02;;;;;;;-1.23;100.00;97002.13;5070979;28;20395;-75
2023/12/07 05:48:36;;;;;;;52.50;24.38;;;;;;;-1.27;100.00;96995.72;5093889;28;20074;-75
2023/12/07 05:51:02;;;;;;;57.53;27.27;;;;;;;-1.29;100.00;97011.31;5091645;28;20043;-74
2023/12/07 05:53:28;;;;;;;53.58;24.52;;;;;;;-1.40;100.00;97007.91;5091336;28;20051;-72
2023/12/07 05:55:54;;;;;;;51.88;24.55;;;;;;;-1.44;100.00;97017.59;5074960;28;20363;-75
2023/12/07 05:58:19;;;;;;;52.30;25.13;;;;;;;-1.43;100.00;97016.53;5050995;28;20103;-70
2023/12/07 06:00:46;;;;;;;48.33;24.50;;;;;;;-1.47;100.00;97010.13;5068035;28;20036;-72
2023/12/07 06:03:13;;;;;;;51.05;24.48;;;;;;;-1.46;100.00;97009.03;5069509;28;20040;-71
2023/12/07 06:05:38;;;;;;;48.50;23.23;;;;;;;-1.45;100.00;97016.00;5079558;28;20131;-71
2023/12/07 06:08:04;;;;;;;48.97;23.13;;;;;;;-1.49;100.00;97018.47;5067310;28;20119;-71
2023/12/07 06:10:30;;;;;;;50.03;24.15;;;;;;;-1.49;100.00;97014.97;5075339;28;20099;-72
2023/12/07 06:12:56;;;;;;;52.25;22.67;;;;;;;-1.54;100.00;97016.59;5084499;28;20036;-71
2023/12/07 06:15:22;;;;;;;45.63;23.10;;;;;;;-1.50;100.00;97016.84;5071483;28;20552;-71
2023/12/07 06:17:48;;;;;;;52.03;23.70;;;;;;;-1.57;100.00;97025.25;5062017;28;20115;-72
2023/12/07 06:20:13;;;;;;;44.65;22.83;;;;;;;-1.56;100.00;97023.34;5068176;28;20043;-72
2023/12/07 06:22:39;;;;;;;48.63;23.48;;;;;;;-1.55;100.00;97014.19;5032555;28;20047;-73
2023/12/07 06:25:05;;;;;;;51.15;24.42;;;;;;;-1.38;100.00;97019.97;5073734;28;20040;-72
2023/12/07 06:27:30;;;;;;;46.35;23.05;;;;;;;-1.33;100.00;97018.31;5082141;28;20102;-72
2023/12/07 06:29:56;;;;;;;39.75;21.17;;;;;;;-1.43;100.00;97016.53;5059617;28;20032;-74
2023/12/07 06:32:22;;;;;;;43.85;21.25;;;;;;;-1.58;100.00;97009.41;5080676;28;20052;-72
2023/12/07 06:34:47;;;;;;;42.55;20.85;;;;;;;-1.61;100.00;97010.75;5059989;28;20096;-69
2023/12/07 06:37:12;;;;;;;47.80;22.92;;;;;;;-1.66;100.00;97007.28;5061641;28;20041;-68
2023/12/07 06:39:38;;;;;;;45.65;22.92;;;;;;;-1.67;100.00;96998.44;5078721;28;20040;-70
2023/12/07 06:42:04;;;;;;;50.70;25.02;;;;;;;-1.63;100.00;97004.06;5067600;28;20655;-67
2023/12/07 06:44:29;;;;;;;52.03;25.40;;;;;;;-1.48;100.00;96998.56;5055293;28;20146;-71
2023/12/07 06:46:55;;;;;;;57.33;27.55;;;;;;;-1.42;100.00;97004.72;5059010;28;20036;-68
2023/12/07 06:49:20;;;;;;;55.63;25.33;;;;;;;-1.41;100.00;97003.63;5057533;28;20521;-68
2023/12/07 06:51:45;;;;;;;53.08;26.80;;;;;;;-1.45;100.00;97011.44;5070395;28;20037;-69
2023/12/07 06:54:11;;;;;;;60.25;27.80;;;;;;;-1.46;100.00;97006.34;5065659;28;20044;-69
2023/12/07 06:56:36;;;;;;;54.15;26.50;;;;;;;-1.48;100.00;97014.66;5052944;28;20410;-69
2023/12/07 06:59:02;;;;;;;55.10;25.88;;;;;;;-1.52;100.00;97018.22;5066663;28;20041;-68
2023/12/07 07:01:27;;;;;;;55.70;26.05;;;;;;;-1.49;100.00;97013.09;5070868;28;20064;-68
2023/12/07 07:03:53;;;;;;;52.95;25.25;;;;;;;-1.52;100.00;97013.63;5076332;28;20064;-68
2023/12/07 07:06:18;;;;;;;46.95;25.35;;;;;;;-1.51;100.00;97009.06;5047196;28;20118;-69
2023/12/07 07:08:43;;;;;;;51.92;23.88;;;;;;;-1.58;100.00;97018.25;5069548;28;20040;-69
2023/12/07 07:11:13;;;;;;;46.78;23.30;;;;;;;-1.58;100.00;97012.88;5073446;28;20474;-68
2023/12/07 07:13:38;;;;;;;51.35;26.30;;;;;;;-1.57;100.00;97013.66;5069324;28;20097;-71
2023/12/07 07:16:04;;;;;;;50.40;24.50;;;;;;;-1.58;100.00;97014.78;5045833;28;20045;-68
2023/12/07 07:18:30;;;;;;;47.72;24.73;;;;;;;-1.62;100.00;97008.34;5051105;28;20829;-75
2023/12/07 07:20:55;;;;;;;51.63;26.17;;;;;;;-1.62;100.00;97016.38;5061078;28;20040;-71
2023/12/07 07:23:20;;;;;;;46.22;24.30;;;;;;;-1.63;100.00;97018.28;5064357;28;20052;-72
2023/12/07 07:25:46;;;;;;;45.03;23.85;;;;;;;-1.64;100.00;97019.38;5046863;28;20031;-70
2023/12/07 07:28:11;;;;;;;52.83;25.88;;;;;;;-1.58;100.00;97012.88;5063067;28;20155;-71
2023/12/07 07:30:37;;;;;;;46.80;24.95;;;;;;;-1.55;100.00;97017.69;5064191;28;20072;-73
2023/12/07 07:33:02;;;;;;;49.47;24.58;;;;;;;-1.54;100.00;97013.91;5060465;28;20047;-69
2023/12/07 07:35:27;;;;;;;49.55;24.40;;;;;;;-1.46;100.00;97017.09;5067285;28;20048;-70
2023/12/07 07:37:53;;;;;;;49.08;24.67;;;;;;;-1.36;100.00;97015.13;5057506;28;20028;-71
2023/12/07 07:40:19;;;;;;;49.45;23.08;;;;;;;-1.30;100.00;97009.69;5076760;28;20133;-73
2023/12/07 07:42:45;;;;;;;40.45;22.52;;;;;;;-1.22;100.00;97017.97;5056781;28;20067;-72
2023/12/07 07:45:10;;;;;;;45.92;23.63;;;;;;;-1.19;100.00;97009.34;5078235;28;20506;-71
2023/12/07 07:47:36;;;;;;;39.50;21.65;;;;;;;-1.23;100.00;97010.19;5074618;28;20032;-70
2023/12/07 07:50:05;;;;;;;41.47;21.45;;;;;;;-1.11;100.00;97009.81;5082914;28;20217;-70
2023/12/07 07:52:35;;;;;;;40.83;21.20;;;;;;;-0.72;100.00;97009.69;5064899;28;20032;-73
2023/12/07 07:55:03;;;;;;;38.05;21.25;;;;;;;-0.42;100.00;97003.13;5081809;28;20463;-74
2023/12/07 07:57:30;;;;;;;37.15;19.35;;;;;;;0.21;100.00;96995.84;5080509;28;20047;-73
2023/12/07 07:59:56;;;;;;;31.92;17.15;;;;;;;0.22;100.00;96992.06;5058613;28;20067;-72
2023/12/07 08:02:21;;;;;;;28.33;16.77;;;;;;;0.57;100.00;96990.69;5094915;28;21035;-73
2023/12/07 08:04:47;;;;;;;26.88;15.73;;;;;;;0.61;100.00;96998.97;5080844;28;20036;-73
2023/12/07 08:07:12;;;;;;;31.48;19.08;;;;;;;0.78;100.00;96989.56;5078649;28;20051;-72
2023/12/07 08:09:38;;;;;;;26.50;16.70;;;;;;;1.55;100.00;96985.44;5063234;28;20114;-72
2023/12/07 08:12:04;;;;;;;24.05;14.75;;;;;;;2.37;100.00;96986.38;5077185;28;20036;-69
2023/12/07 08:14:30;;;;;;;22.90;13.52;;;;;;;3.22;100.00;96987.22;5081439;28;20513;-72
2023/12/07 08:16:55;;;;;;;17.35;11.63;;;;;;;3.48;100.00;96999.28;5082635;28;20040;-72
2023/12/07 08:19:21;;;;;;;19.38;12.65;;;;;;;4.49;100.00;96991.94;5059604;28;20049;-72
2023/12/07 08:21:46;;;;;;;20.40;10.27;;;;;;;4.62;100.00;96995.59;5062260;28;20055;-72
2023/12/07 08:24:12;;;;;;;16.00;10.60;;;;;;;4.78;100.00;96991.28;5077210;28;20051;-73
2023/12/07 08:26:38;;;;;;;27.00;12.98;;;;;;;5.04;100.00;96987.75;5083953;28;20032;-74
2023/12/07 08:29:05;;;;;;;14.35;9.52;;;;;;;3.60;100.00;96994.84;5072425;28;20043;-69
2023/12/07 08:31:30;;;;;;;17.38;11.30;;;;;;;3.03;100.00;96994.75;5063407;28;20044;-73
2023/12/07 08:33:56;;;;;;;19.75;11.65;;;;;;;1.94;100.00;96981.38;5081300;28;20043;-73
2023/12/07 08:36:21;;;;;;;19.83;11.38;;;;;;;1.41;100.00;96978.16;5076364;28;20284;-73
2023/12/07 08:38:46;;;;;;;24.20;16.25;;;;;;;1.08;100.00;96964.75;5080388;28;20483;-71
2023/12/07 08:41:12;;;;;;;19.98;11.85;;;;;;;1.29;100.00;96967.03;5057476;28;20043;-72
2023/12/07 08:43:37;;;;;;;26.90;15.88;;;;;;;1.12;100.00;96957.66;5053928;28;20474;-72
2023/12/07 08:46:04;;;;;;;19.00;12.20;;;;;;;1.05;100.00;96957.25;5078184;28;20121;-70
2023/12/07 08:48:30;;;;;;;19.45;11.35;;;;;;;1.00;100.00;96951.94;5079491;28;20040;-73
2023/12/07 08:50:55;;;;;;;17.92;11.02;;;;;;;1.07;100.00;96951.56;5080936;28;20513;-73
2023/12/07 08:53:21;;;;;;;17.52;10.20;;;;;;;1.16;100.00;96948.97;5051556;28;20531;-73
2023/12/07 08:55:46;;;;;;;21.13;10.65;;;;;;;1.17;100.00;96943.28;5058536;28;20047;-73
2023/12/07 08:58:11;;;;;;;19.95;11.63;;;;;;;1.18;100.00;96939.47;5054302;28;20055;-73
2023/12/07 09:00:38;;;;;;;17.05;10.48;;;;;;;1.17;100.00;96934.34;5074028;28;20048;-70
2023/12/07 09:03:03;;;;;;;18.75;10.77;;;;;;;1.33;100.00;96943.75;5068917;28;20047;-71
2023/12/07 09:05:32;;;;;;;19.52;10.07;;;;;;;1.11;100.00;96931.75;5100159;28;20048;-73
2023/12/07 09:07:57;;;;;;;18.15;10.65;;;;;;;1.41;100.00;96934.16;5103611;28;20108;-72
2023/12/07 09:10:23;;;;;;;17.25;10.38;;;;;;;1.69;100.00;96938.44;5076991;28;20117;-73
2023/12/07 09:12:48;;;;;;;20.85;11.90;;;;;;;1.57;100.00;96943.53;5081666;28;20047;-73
2023/12/07 09:15:14;;;;;;;15.95;10.25;;;;;;;2.01;100.00;96946.66;5075697;28;20056;-72
2023/12/07 09:17:39;;;;;;;16.45;10.23;;;;;;;1.98;100.00;96948.06;5071602;28;20086;-73
2023/12/07 09:20:11;;;;;;;18.33;11.35;;;;;;;2.21;100.00;96958.88;5068138;28;20036;-73
2023/12/07 09:22:43;;;;;;;19.05;10.07;;;;;;;1.81;100.00;96948.69;5080726;28;20055;-74
2023/12/07 09:25:10;;;;;;;21.92;13.15;;;;;;;2.14;100.00;96953.91;5049922;28;20046;-74
2023/12/07 09:27:37;;;;;;;15.07;9.85;;;;;;;2.48;100.00;96952.56;5069468;28;20106;-74
2023/12/07 09:30:10;;;;;;;18.60;10.13;;;;;;;2.54;100.00;96969.47;5072260;28;20103;-70
2023/12/07 09:32:42;;;;;;;21.13;12.05;;;;;;;2.83;100.00;96975.25;5082403;28;20036;-74
2023/12/07 09:35:18;;;;;;;15.32;10.30;;;;;;;3.53;100.00;96983.69;5069125;28;20036;-74
2023/12/07 09:37:45;;;;;;;22.45;15.65;;;;;;;3.76;100.00;96978.16;5081007;28;20062;-75
2023/12/07 09:40:24;;;;;;;18.60;12.02;;;;;;;4.48;100.00;96981.41;5076256;28;20119;-75
2023/12/07 09:42:50;;;;;;;12.33;8.83;;;;;;;5.88;100.00;96995.38;5079839;28;20452;-76
2023/12/07 09:45:18;;;;;;;14.07;7.15;;;;;;;6.16;95.40;96990.28;5074910;28;20290;-74
2023/12/07 09:47:48;;;;;;;12.85;7.50;;;;;;;4.00;100.00;96969.59;5064604;28;20422;-74
2023/12/07 09:50:16;;;;;;;12.27;8.52;;;;;;;3.73;100.00;96963.34;5068326;28;20045;-72
2023/12/07 09:52:42;;;;;;;11.50;8.05;;;;;;;4.79;100.00;96960.31;5080075;28;20046;-74
2023/12/07 09:55:08;;;;;;;17.35;9.85;;;;;;;3.77;100.00;96949.97;5069804;28;20028;-74
2023/12/07 09:57:33;;;;;;;10.73;7.43;;;;;;;3.12;100.00;96943.41;5080201;28;20040;-74
2023/12/07 09:59:59;;;;;;;14.48;7.60;;;;;;;3.39;100.00;96936.97;5077972;28;20043;-74
2023/12/07 10:02:25;;;;;;;39.63;20.25;;;;;;;3.86;100.00;96931.00;5076268;28;20478;-73
2023/12/07 10:05:08;;;;;;;13.55;9.88;;;;;;;4.48;100.00;96921.75;5063533;28;20028;-74
2023/12/07 10:07:36;;;;;;;14.45;9.65;;;;;;;3.74;100.00;96924.28;5083451;28;20105;-73
2023/12/07 10:10:03;;;;;;;14.13;7.93;;;;;;;3.12;100.00;96927.94;5085779;28;20063;-71
2023/12/07 10:12:35;;;;;;;11.55;7.78;;;;;;;3.15;100.00;96921.91;5093297;28;20379;-75
2023/12/07 10:15:11;;;;;;;13.15;8.77;;;;;;;2.98;100.00;96916.44;5100594;28;20059;-72
2023/12/07 10:17:59;;;;;;;14.20;8.90;;;;;;;3.13;100.00;96915.19;5090439;28;20114;-75
2023/12/07 10:20:28;;;;;;;13.55;7.85;;;;;;;3.18;100.00;96905.03;5076245;28;20286;-76
2023/12/07 10:23:07;;;;;;;15.18;9.90;;;;;;;3.46;100.00;96899.41;5072876;28;20553;-72
2023/12/07 10:25:41;;;;;;;13.25;8.52;;;;;;;2.81;100.00;96895.47;5080929;28;20036;-73
2023/12/07 10:28:12;;;;;;;12.68;7.80;;;;;;;2.76;100.00;96899.13;5050183;28;20044;-74
2023/12/07 10:30:41;;;;;;;12.00;8.13;;;;;;;3.45;100.00;96887.75;5074590;28;20493;-75
2023/12/07 10:33:07;;;;;;;12.98;8.55;;;;;;;3.19;100.00;96886.91;5071750;28;20479;-75
2023/12/07 10:35:33;;;;;;;12.98;7.38;;;;;;;3.46;100.00;96896.69;5066109;28;20051;-77
2023/12/07 10:37:58;;;;;;;13.00;8.35;;;;;;;2.97;100.00;96895.88;5086177;28;20044;-74
2023/12/07 10:40:23;;;;;;;13.57;7.97;;;;;;;3.33;100.00;96890.28;5070407;28;20449;-75
2023/12/07 10:42:53;;;;;;;13.85;7.60;;;;;;;3.33;100.00;96893.00;5084882;28;20125;-75
2023/12/07 10:45:21;;;;;;;10.27;7.03;;;;;;;4.46;100.00;96886.00;5075228;28;20047;-76
2023/12/07 10:47:48;;;;;;;10.68;6.40;;;;;;;5.00;100.00;96893.69;5073432;28;20050;-74
2023/12/07 10:50:21;;;;;;;12.90;7.78;;;;;;;4.02;100.00;96881.44;5083384;28;20064;-74
2023/12/07 10:52:59;;;;;;;10.52;6.68;;;;;;;3.78;100.00;96878.38;5059168;28;20033;-71
2023/12/07 10:55:29;;;;;;;10.10;7.03;;;;;;;3.38;100.00;96865.75;5074313;28;20155;-74
2023/12/07 10:57:56;;;;;;;12.48;7.10;;;;;;;3.29;100.00;96856.03;5081052;28;20028;-74
2023/12/07 11:00:27;;;;;;;11.10;6.97;;;;;;;3.71;100.00;96867.22;5073631;28;20401;-73
2023/12/07 11:02:53;;;;;;;14.48;7.50;;;;;;;3.41;100.00;96858.91;5080980;28;20033;-73
2023/12/07 11:05:19;;;;;;;9.30;6.20;;;;;;;3.82;100.00;96857.69;5068114;28;20091;-75
2023/12/07 11:08:01;;;;;;;10.38;6.75;;;;;;;3.53;100.00;96861.00;5065013;28;20102;-74
2023/12/07 11:10:38;;;;;;;12.27;6.80;;;;;;;3.41;100.00;96850.78;5095166;28;20060;-72